createdAt,value
2022-08-26T00:00:08.797Z,29.08
2022-08-26T00:03:01.081Z,30.25
2022-08-26T00:05:33.232Z,33.78
2022-08-26T00:08:04.294Z,31.05
2022-08-26T00:10:32.878Z,29.13
2022-08-26T00:13:00.540Z,39.92
2022-08-26T00:15:28.336Z,33.60
2022-08-26T00:17:56.500Z,39.53
2022-08-26T00:20:29.127Z,37.03
2022-08-26T00:22:57.755Z,28.92
2022-08-26T00:25:26.594Z,36.78
2022-08-26T00:27:54.314Z,38.22
2022-08-26T00:30:28.822Z,47.17
2022-08-26T00:32:58.851Z,38.08
2022-08-26T00:35:28.798Z,39.63
2022-08-26T00:40:35.609Z,42.90
2022-08-26T00:43:07.119Z,51.20
2022-08-26T00:46:11.130Z,42.53
2022-08-26T00:48:42.432Z,47.25
2022-08-26T00:51:23.140Z,53.17
2022-08-26T00:54:10.791Z,44.25
2022-08-26T00:56:57.839Z,55.80
2022-08-26T00:59:32.910Z,54.22
2022-08-26T01:02:03.214Z,62.70
2022-08-26T01:04:35.297Z,65.90
2022-08-26T01:07:05.603Z,55.75
2022-08-26T01:09:33.969Z,55.33
2022-08-26T01:12:03.408Z,68.35
2022-08-26T01:14:35.186Z,64.53
2022-08-26T01:17:07.765Z,104.75
2022-08-26T01:19:49.717Z,93.35
2022-08-26T01:22:52.467Z,54.22
2022-08-26T01:25:22.558Z,133.77
2022-08-26T01:27:52.474Z,97.68
2022-08-26T01:32:50.650Z,127.82
2022-08-26T01:37:52.314Z,86.15
2022-08-26T01:40:43.782Z,105.35
2022-08-26T01:43:23.141Z,83.43
2022-08-26T01:45:54.759Z,70.55
2022-08-26T01:48:28.785Z,64.63
2022-08-26T01:50:57.683Z,115.75
2022-08-26T01:53:27.051Z,86.68
2022-08-26T01:56:00.526Z,90.68
2022-08-26T01:58:38.024Z,107.78
2022-08-26T02:01:07.205Z,107.43
2022-08-26T02:04:09.818Z,130.38
2022-08-26T02:10:47.741Z,113.60
2022-08-26T02:13:15.698Z,44.15
2022-08-26T02:15:44.793Z,84.25
2022-08-26T02:18:14.115Z,148.32
2022-08-26T02:20:42.153Z,100.65
2022-08-26T02:23:09.776Z,128.82
2022-08-26T02:26:10.448Z,167.65
2022-08-26T02:29:25.577Z,167.95
2022-08-26T02:31:55.762Z,118.22
2022-08-26T02:34:32.520Z,93.03
2022-08-26T02:37:06.079Z,263.58
2022-08-26T02:39:37.050Z,92.38
2022-08-26T02:42:06.230Z,81.20
2022-08-26T02:44:34.288Z,148.20
2022-08-26T02:47:02.475Z,65.20
2022-08-26T02:49:30.521Z,155.40
2022-08-26T02:52:01.860Z,56.83
2022-08-26T02:54:29.933Z,95.45
2022-08-26T02:57:09.943Z,179.75
2022-08-26T02:59:40.067Z,164.52
2022-08-26T03:02:08.719Z,132.15
2022-08-26T03:04:37.626Z,201.73
2022-08-26T03:07:07.698Z,109.95
2022-08-26T03:09:36.189Z,230.73
2022-08-26T03:12:04.751Z,279.67
2022-08-26T03:14:32.844Z,182.80
2022-08-26T03:17:00.540Z,248.25
2022-08-26T03:19:28.124Z,137.75
2022-08-26T03:21:58.051Z,211.63
2022-08-26T03:24:26.978Z,225.68
2022-08-26T03:26:54.972Z,235.98
2022-08-26T03:29:42.598Z,205.82
2022-08-26T03:32:11.086Z,281.20
2022-08-26T03:34:38.853Z,134.68
2022-08-26T03:37:06.592Z,263.15
2022-08-26T03:39:34.780Z,238.68
2022-08-26T03:42:02.687Z,231.10
2022-08-26T03:44:30.326Z,195.27
2022-08-26T03:46:58.251Z,186.98
2022-08-26T03:49:28.905Z,200.18
2022-08-26T03:51:56.694Z,206.38
2022-08-26T03:54:24.396Z,242.77
2022-08-26T03:56:52.273Z,208.77
2022-08-26T03:59:20.963Z,193.25
2022-08-26T04:01:48.675Z,122.70
2022-08-26T04:04:17.244Z,250.05
2022-08-26T04:06:45.032Z,150.68
2022-08-26T04:09:18.971Z,153.13
2022-08-26T04:11:50.669Z,250.18
2022-08-26T04:14:23.728Z,218.60
2022-08-26T04:16:53.365Z,227.95
2022-08-26T04:19:25.061Z,222.60
2022-08-26T04:21:54.180Z,177.15
2022-08-26T04:24:26.114Z,258.38
2022-08-26T04:26:56.671Z,353.13
2022-08-26T04:29:26.750Z,260.83
2022-08-26T04:31:56.314Z,353.30
2022-08-26T04:36:58.357Z,332.35
2022-08-26T04:39:28.084Z,271.77
2022-08-26T04:41:57.811Z,411.92
2022-08-26T04:44:29.762Z,197.30
2022-08-26T04:46:58.833Z,273.00
2022-08-26T04:49:27.662Z,216.93
2022-08-26T04:51:55.267Z,155.43
2022-08-26T04:54:23.885Z,346.50
2022-08-26T04:56:52.940Z,277.95
2022-08-26T04:59:20.619Z,282.67
2022-08-26T05:01:56.462Z,258.77
2022-08-26T05:04:24.191Z,337.85
2022-08-26T05:06:57.810Z,328.05
2022-08-26T05:09:30.398Z,261.45
2022-08-26T05:11:58.377Z,260.98
2022-08-26T05:14:26.656Z,329.45
2022-08-26T05:16:54.725Z,199.90
2022-08-26T05:19:23.803Z,296.75
2022-08-26T05:21:51.403Z,263.05
2022-08-26T05:24:19.358Z,231.65
2022-08-26T05:26:48.133Z,251.65
2022-08-26T05:29:16.924Z,235.73
2022-08-26T05:31:44.667Z,166.40
2022-08-26T05:34:12.935Z,275.13
2022-08-26T05:36:40.527Z,246.20
2022-08-26T05:39:10.442Z,155.55
2022-08-26T05:41:41.789Z,208.23
2022-08-26T05:44:15.037Z,214.90
2022-08-26T05:46:45.340Z,201.18
2022-08-26T05:49:16.701Z,157.20
2022-08-26T05:51:47.637Z,197.02
2022-08-26T05:54:21.973Z,131.93
2022-08-26T05:56:53.650Z,123.68
2022-08-26T05:59:24.491Z,196.65
2022-08-26T06:01:54.992Z,81.72
2022-08-26T06:04:26.916Z,85.95
2022-08-26T06:06:55.900Z,89.70
2022-08-26T06:09:24.124Z,95.88
2022-08-26T06:11:52.017Z,98.35
2022-08-26T06:16:49.834Z,91.60
2022-08-26T06:19:17.663Z,77.32
2022-08-26T06:21:47.984Z,84.13
2022-08-26T06:24:48.310Z,86.32
2022-08-26T06:30:01.108Z,83.63
2022-08-26T06:32:29.051Z,78.20
2022-08-26T06:34:57.898Z,74.38
2022-08-26T06:37:25.760Z,59.78
2022-08-26T06:39:53.350Z,55.08
2022-08-26T06:42:22.532Z,48.90
2022-08-26T06:44:51.888Z,49.15
2022-08-26T06:47:19.697Z,51.30
2022-08-26T06:49:47.874Z,45.92
2022-08-26T06:52:22.509Z,48.95
2022-08-26T06:54:52.208Z,49.28
2022-08-26T06:57:20.745Z,42.58
2022-08-26T06:59:51.235Z,41.40
2022-08-26T07:02:19.776Z,41.90
2022-08-26T07:04:48.706Z,47.15
2022-08-26T07:07:19.417Z,41.67
2022-08-26T07:09:52.458Z,44.55
2022-08-26T07:12:21.310Z,43.55
2022-08-26T07:14:49.131Z,34.97
2022-08-26T07:17:17.623Z,36.55
2022-08-26T07:19:49.210Z,39.67
2022-08-26T07:22:17.305Z,35.83
2022-08-26T07:24:45.815Z,40.15
2022-08-26T07:27:16.659Z,52.78
2022-08-26T07:29:45.394Z,44.53
2022-08-26T07:32:15.596Z,45.67
2022-08-26T07:34:44.344Z,37.22
2022-08-26T07:37:12.386Z,36.72
2022-08-26T07:39:41.805Z,44.45
2022-08-26T07:42:15.017Z,39.08
2022-08-26T07:44:44.356Z,35.72
2022-08-26T07:47:24.994Z,31.23
2022-08-26T07:49:58.201Z,33.78
2022-08-26T07:52:30.271Z,40.40
2022-08-26T07:55:01.805Z,34.83
2022-08-26T07:57:30.612Z,35.25
2022-08-26T07:59:59.884Z,41.58
2022-08-26T08:04:58.963Z,34.97
2022-08-26T08:07:45.136Z,29.20
2022-08-26T08:10:22.701Z,31.23
2022-08-26T08:12:53.702Z,26.33
2022-08-26T08:15:26.571Z,24.75
2022-08-26T08:17:58.831Z,29.42
2022-08-26T08:20:29.959Z,29.05
2022-08-26T08:22:58.057Z,33.83
2022-08-26T08:25:26.377Z,25.70
2022-08-26T08:27:54.304Z,29.88
2022-08-26T08:30:23.440Z,26.83
2022-08-26T08:32:53.211Z,27.83
2022-08-26T08:35:23.062Z,26.85
2022-08-26T08:37:54.466Z,28.60
2022-08-26T08:40:26.361Z,25.60
2022-08-26T08:43:07.570Z,26.50
2022-08-26T08:46:04.332Z,23.95
2022-08-26T08:48:39.601Z,21.52
2022-08-26T08:51:40.504Z,22.88
2022-08-26T08:54:10.651Z,25.17
2022-08-26T08:56:57.685Z,21.67
2022-08-26T08:59:34.850Z,26.00
2022-08-26T09:02:43.293Z,28.77
2022-08-26T09:05:25.789Z,19.15
2022-08-26T09:08:04.894Z,24.75
2022-08-26T09:10:46.270Z,21.10
2022-08-26T09:13:25.147Z,25.55
2022-08-26T09:16:19.161Z,24.75
2022-08-26T09:19:23.994Z,23.80
2022-08-26T09:21:57.699Z,18.77
2022-08-26T09:24:28.528Z,20.88
2022-08-26T09:26:59.318Z,22.52
2022-08-26T09:29:41.272Z,18.83
2022-08-26T09:32:25.182Z,14.38
2022-08-26T09:35:00.515Z,15.13
2022-08-26T09:40:35.330Z,20.00
2022-08-26T09:43:22.599Z,21.10
2022-08-26T09:45:59.086Z,21.83
2022-08-26T09:48:40.540Z,34.00
2022-08-26T09:51:23.483Z,17.50
2022-08-26T09:53:59.089Z,17.02
2022-08-26T09:56:33.876Z,10.80
2022-08-26T09:59:03.629Z,19.10
2022-08-26T10:01:42.885Z,14.80
2022-08-26T10:04:26.746Z,25.48
2022-08-26T10:07:05.574Z,17.10
2022-08-26T10:09:40.767Z,14.55
2022-08-26T10:12:21.515Z,10.38
2022-08-26T10:14:59.205Z,13.55
2022-08-26T10:17:40.329Z,15.87
2022-08-26T10:20:23.338Z,10.55
2022-08-26T10:23:01.023Z,20.17
2022-08-26T10:25:43.004Z,20.35
2022-08-26T10:28:23.534Z,10.20
2022-08-26T10:31:43.135Z,17.10
2022-08-26T10:34:14.166Z,13.98
2022-08-26T10:37:14.896Z,8.30
2022-08-26T10:40:28.169Z,13.57
2022-08-26T10:43:11.068Z,11.55
2022-08-26T10:45:52.113Z,10.60
2022-08-26T10:48:54.130Z,12.55
2022-08-26T10:51:30.298Z,15.45
2022-08-26T10:54:13.383Z,39.95
2022-08-26T10:56:59.503Z,15.32
2022-08-26T10:59:39.511Z,12.23
2022-08-26T11:02:24.658Z,18.70
2022-08-26T11:05:05.643Z,16.27
2022-08-26T11:07:39.319Z,10.82
2022-08-26T11:10:22.940Z,13.93
2022-08-26T11:13:07.178Z,11.77
2022-08-26T11:15:41.465Z,12.50
2022-08-26T11:18:32.739Z,13.18
2022-08-26T11:21:02.725Z,11.07
2022-08-26T11:23:33.612Z,8.30
2022-08-26T11:26:08.697Z,12.02
2022-08-26T11:28:48.767Z,12.70
2022-08-26T11:31:26.798Z,9.82
2022-08-26T11:34:10.263Z,11.80
2022-08-26T11:36:42.281Z,12.63
2022-08-26T11:39:57.103Z,8.80
2022-08-26T11:42:43.854Z,9.93
2022-08-26T11:45:47.053Z,10.15
2022-08-26T11:48:33.905Z,14.00
2022-08-26T11:51:21.400Z,11.48
2022-08-26T11:53:51.625Z,13.07
2022-08-26T11:59:11.832Z,14.00
2022-08-26T12:01:48.846Z,8.88
2022-08-26T12:04:34.683Z,10.13
2022-08-26T12:07:08.611Z,16.52
2022-08-26T12:09:53.079Z,12.57
2022-08-26T12:12:34.728Z,9.77
2022-08-26T12:15:18.635Z,9.32
2022-08-26T12:17:53.372Z,8.85
2022-08-26T12:20:56.130Z,12.98
2022-08-26T12:23:47.448Z,10.52
2022-08-26T12:26:30.239Z,14.43
2022-08-26T12:29:12.943Z,24.60
2022-08-26T12:31:50.197Z,18.33
2022-08-26T12:34:19.465Z,12.32
2022-08-26T12:39:29.247Z,8.35
2022-08-26T12:42:01.340Z,6.55
2022-08-26T12:44:42.059Z,14.40
2022-08-26T12:47:40.091Z,8.38
2022-08-26T12:50:51.616Z,11.43
2022-08-26T12:53:33.599Z,18.33
2022-08-26T12:56:22.283Z,6.53
2022-08-26T12:59:23.331Z,9.95
2022-08-26T13:01:54.744Z,9.38
2022-08-26T13:04:43.779Z,7.03
2022-08-26T13:07:22.676Z,7.07
2022-08-26T13:09:57.087Z,13.38
2022-08-26T13:12:37.551Z,12.38
2022-08-26T13:15:06.978Z,8.82
2022-08-26T13:17:36.288Z,10.02
2022-08-26T13:20:05.613Z,7.38
2022-08-26T13:22:34.582Z,18.63
2022-08-26T13:25:02.598Z,7.18
2022-08-26T13:27:30.705Z,13.95
2022-08-26T13:29:59.226Z,9.23
2022-08-26T13:32:27.917Z,8.82
2022-08-26T13:34:57.700Z,7.87
2022-08-26T13:37:34.358Z,6.72
2022-08-26T13:40:07.630Z,17.65
2022-08-26T13:42:35.699Z,8.02
2022-08-26T13:45:04.814Z,7.80
2022-08-26T13:47:34.084Z,11.68
2022-08-26T13:50:02.442Z,11.40
2022-08-26T13:52:31.215Z,20.93
2022-08-26T13:55:00.863Z,7.85
2022-08-26T13:57:30.388Z,9.88
2022-08-26T13:59:59.516Z,9.35
2022-08-26T14:02:28.105Z,8.13
2022-08-26T14:04:56.632Z,16.57
2022-08-26T14:07:26.377Z,11.88
2022-08-26T14:09:54.107Z,12.88
2022-08-26T14:12:22.144Z,8.60
2022-08-26T14:14:50.499Z,14.20
2022-08-26T14:17:22.861Z,8.90
2022-08-26T14:19:52.002Z,10.65
2022-08-26T14:22:22.629Z,7.15
2022-08-26T14:24:51.622Z,8.25
2022-08-26T14:27:19.600Z,10.38
2022-08-26T14:29:47.561Z,7.97
2022-08-26T14:32:28.954Z,10.45
2022-08-26T14:34:56.945Z,13.02
2022-08-26T14:37:25.264Z,14.55
2022-08-26T14:39:53.209Z,10.07
2022-08-26T14:42:31.568Z,7.95
2022-08-26T14:45:05.189Z,7.57
2022-08-26T14:47:33.058Z,7.90
2022-08-26T14:50:01.387Z,12.70
2022-08-26T14:52:50.487Z,10.25
2022-08-26T14:55:18.574Z,12.55
2022-08-26T14:57:46.508Z,8.95
2022-08-26T15:00:15.119Z,12.60
2022-08-26T15:02:44.330Z,12.82
2022-08-26T15:05:12.673Z,11.68
2022-08-26T15:07:41.152Z,10.45
2022-08-26T15:10:14.232Z,11.55
2022-08-26T15:12:43.468Z,11.85
2022-08-26T15:17:45.389Z,6.85
2022-08-26T15:20:14.279Z,8.80
2022-08-26T15:22:43.378Z,25.90
2022-08-26T15:25:11.912Z,14.07
2022-08-26T15:30:13.433Z,14.27
2022-08-26T15:32:42.585Z,14.80
2022-08-26T15:35:10.707Z,8.67
2022-08-26T15:37:39.126Z,8.80
2022-08-26T15:40:09.689Z,10.60
2022-08-26T15:42:37.974Z,8.05
2022-08-26T15:45:06.198Z,16.20
2022-08-26T15:47:55.376Z,9.00
2022-08-26T15:50:22.584Z,9.80
2022-08-26T15:52:50.952Z,12.35
2022-08-26T15:55:19.340Z,14.73
2022-08-26T15:57:52.444Z,8.98
2022-08-26T16:00:20.859Z,7.85
2022-08-26T16:02:48.750Z,10.63
2022-08-26T16:05:18.247Z,7.63
2022-08-26T16:07:46.385Z,6.30
2022-08-26T16:10:14.487Z,8.98
2022-08-26T16:12:42.371Z,10.13
2022-08-26T16:15:11.074Z,16.23
2022-08-26T16:17:40.799Z,11.93
2022-08-26T16:20:09.665Z,11.73
2022-08-26T16:22:37.305Z,10.82
2022-08-26T16:25:07.483Z,9.63
2022-08-26T16:27:35.588Z,16.25
2022-08-26T16:30:06.539Z,21.80
2022-08-26T16:32:34.436Z,35.05
2022-08-26T16:35:02.536Z,10.35
2022-08-26T16:37:30.400Z,33.67
2022-08-26T16:39:58.354Z,18.33
2022-08-26T16:42:26.591Z,13.85
2022-08-26T16:44:55.049Z,12.10
2022-08-26T16:47:26.543Z,16.02
2022-08-26T16:49:55.175Z,14.00
2022-08-26T16:52:23.062Z,12.75
2022-08-26T16:54:53.184Z,10.45
2022-08-26T16:57:21.043Z,9.60
2022-08-26T16:59:48.723Z,13.93
2022-08-26T17:02:16.889Z,8.77
2022-08-26T17:04:47.142Z,11.50
2022-08-26T17:07:16.349Z,15.90
2022-08-26T17:09:44.281Z,12.25
2022-08-26T17:12:12.417Z,22.02
2022-08-26T17:14:40.283Z,14.70
2022-08-26T17:17:08.415Z,17.92
2022-08-26T17:19:40.929Z,13.73
2022-08-26T17:22:16.377Z,19.45
2022-08-26T17:24:44.361Z,25.60
2022-08-26T17:27:12.152Z,29.83
2022-08-26T17:29:40.564Z,36.75
2022-08-26T17:32:08.449Z,32.22
2022-08-26T17:34:36.693Z,33.70
2022-08-26T17:37:04.692Z,28.38
2022-08-26T17:39:32.738Z,26.85
2022-08-26T17:42:01.240Z,21.33
2022-08-26T17:44:29.964Z,22.95
2022-08-26T17:46:57.721Z,26.75
2022-08-26T17:49:25.456Z,21.38
2022-08-26T17:51:53.705Z,22.17
2022-08-26T17:54:21.679Z,20.27
2022-08-26T17:56:49.896Z,35.22
2022-08-26T17:59:18.336Z,21.95
2022-08-26T18:01:46.630Z,24.00
2022-08-26T18:04:15.253Z,21.60
2022-08-26T18:06:43.643Z,27.17
2022-08-26T18:09:12.334Z,28.52
2022-08-26T18:11:40.834Z,23.27
2022-08-26T18:14:09.261Z,24.53
2022-08-26T18:16:39.551Z,27.08
2022-08-26T18:19:08.131Z,34.22
2022-08-26T18:21:37.115Z,38.42
2022-08-26T18:24:05.747Z,27.93
2022-08-26T18:26:38.087Z,19.73
2022-08-26T18:29:08.368Z,16.50
2022-08-26T18:31:36.257Z,16.65
2022-08-26T18:34:04.536Z,19.30
2022-08-26T18:36:38.106Z,27.93
2022-08-26T18:39:08.821Z,22.20
2022-08-26T18:41:45.702Z,34.38
2022-08-26T18:44:17.896Z,30.10
2022-08-26T18:46:48.496Z,39.17
2022-08-26T18:49:20.330Z,25.80
2022-08-26T18:51:51.368Z,28.58
2022-08-26T18:56:53.596Z,26.00
2022-08-26T18:59:26.749Z,28.48
2022-08-26T19:01:58.365Z,26.15
2022-08-26T19:04:27.213Z,19.27
2022-08-26T19:06:57.918Z,49.83
2022-08-26T19:09:37.133Z,80.18
2022-08-26T19:12:07.403Z,71.75
2022-08-26T19:14:37.872Z,51.53
2022-08-26T19:17:07.105Z,43.37
2022-08-26T19:19:35.827Z,20.02
2022-08-26T19:22:06.041Z,20.75
2022-08-26T19:24:35.896Z,15.50
2022-08-26T19:27:04.884Z,17.15
2022-08-26T19:29:36.474Z,18.73
2022-08-26T19:32:06.445Z,16.17
2022-08-26T19:34:35.526Z,16.77
2022-08-26T19:37:07.329Z,18.58
2022-08-26T19:39:36.663Z,18.83
2022-08-26T19:42:07.126Z,15.63
2022-08-26T19:44:57.642Z,16.20
2022-08-26T19:47:27.037Z,14.43
2022-08-26T19:50:01.882Z,17.38
2022-08-26T19:52:32.604Z,15.85
2022-08-26T19:55:03.229Z,20.70
2022-08-26T19:57:31.773Z,16.50
2022-08-26T20:00:01.346Z,17.90
2022-08-26T20:02:31.225Z,19.02
2022-08-26T20:05:01.235Z,13.27
2022-08-26T20:07:32.800Z,17.50
2022-08-26T20:10:04.037Z,20.80
2022-08-26T20:12:35.725Z,20.05
2022-08-26T20:15:06.027Z,20.77
2022-08-26T20:17:36.291Z,26.45
2022-08-26T20:20:32.981Z,18.33
2022-08-26T20:23:04.755Z,20.73
2022-08-26T20:25:34.667Z,17.60
2022-08-26T20:28:10.879Z,21.33
2022-08-26T20:30:40.878Z,21.75
2022-08-26T20:33:09.815Z,24.17
2022-08-26T20:35:41.188Z,20.75
2022-08-26T20:38:11.071Z,15.80
2022-08-26T20:40:40.956Z,16.80
2022-08-26T20:43:10.032Z,16.80
2022-08-26T20:45:38.504Z,14.77
2022-08-26T20:48:07.380Z,18.87
2022-08-26T20:50:35.720Z,22.33
2022-08-26T20:53:04.106Z,14.60
2022-08-26T20:55:33.524Z,17.25
2022-08-26T20:58:01.548Z,17.02
2022-08-26T21:00:29.782Z,15.45
2022-08-26T21:02:58.270Z,17.85
2022-08-26T21:05:26.190Z,15.95
2022-08-26T21:07:54.044Z,14.38
2022-08-26T21:10:22.327Z,19.30
2022-08-26T21:12:51.276Z,14.73
2022-08-26T21:15:19.069Z,16.05
2022-08-26T21:17:47.051Z,16.38
2022-08-26T21:20:14.990Z,13.20
2022-08-26T21:22:42.895Z,14.85
2022-08-26T21:25:11.153Z,19.38
2022-08-26T21:27:39.223Z,14.95
2022-08-26T21:30:08.282Z,19.48
2022-08-26T21:32:36.364Z,14.55
2022-08-26T21:35:04.526Z,14.43
2022-08-26T21:37:32.749Z,15.82
2022-08-26T21:40:05.470Z,16.63
2022-08-26T21:42:35.760Z,17.42
2022-08-26T21:45:06.350Z,16.25
2022-08-26T21:47:34.453Z,20.48
2022-08-26T21:50:02.725Z,10.80
2022-08-26T21:52:30.956Z,13.50
2022-08-26T21:55:04.442Z,16.33
2022-08-26T21:57:37.352Z,15.15
2022-08-26T22:00:09.914Z,11.93
2022-08-26T22:02:38.961Z,15.35
2022-08-26T22:05:07.353Z,12.27
2022-08-26T22:07:36.367Z,15.02
2022-08-26T22:10:05.681Z,18.73
2022-08-26T22:12:33.949Z,18.30
2022-08-26T22:15:03.154Z,14.23
2022-08-26T22:19:59.533Z,14.55
2022-08-26T22:22:28.718Z,13.48
2022-08-26T22:24:56.859Z,14.25
2022-08-26T22:27:24.693Z,17.77
2022-08-26T22:29:52.920Z,13.90
2022-08-26T22:32:21.352Z,12.60
2022-08-26T22:34:49.620Z,11.63
2022-08-26T22:37:17.772Z,12.68
2022-08-26T22:39:46.497Z,13.32
2022-08-26T22:42:14.430Z,11.30
2022-08-26T22:44:43.992Z,10.50
2022-08-26T22:49:39.920Z,18.15
2022-08-26T22:52:07.708Z,10.55
2022-08-26T22:54:35.889Z,12.93
2022-08-26T22:57:04.065Z,14.50
2022-08-26T22:59:32.268Z,12.68
2022-08-26T23:02:00.794Z,17.42
2022-08-26T23:04:29.229Z,15.10
2022-08-26T23:06:57.071Z,12.50
2022-08-26T23:09:25.221Z,15.85
2022-08-26T23:11:56.064Z,14.25
2022-08-26T23:14:26.706Z,13.18
2022-08-26T23:16:58.447Z,13.75
2022-08-26T23:19:26.311Z,13.65
2022-08-26T23:21:53.996Z,19.23
2022-08-26T23:24:22.206Z,13.60
2022-08-26T23:26:50.143Z,13.85
2022-08-26T23:29:17.998Z,8.32
2022-08-26T23:31:46.100Z,17.13
2022-08-26T23:34:32.681Z,12.75
2022-08-26T23:37:01.449Z,16.88
2022-08-26T23:39:33.007Z,16.25
2022-08-26T23:42:01.851Z,14.27
2022-08-26T23:44:31.406Z,13.03
2022-08-26T23:46:59.852Z,12.82
2022-08-26T23:49:28.529Z,12.90
2022-08-26T23:52:35.202Z,15.60
2022-08-26T23:55:03.167Z,10.13
2022-08-26T23:57:31.439Z,12.02
2022-08-26T23:59:59.201Z,11.95
